Time;durP1;ratioP1;P1;durP2;ratioP2;P2;SDS_P1;SDS_P2;PMS_P1;PMS_P2;Temp;Humidity;BMP_temperature;BMP_pressure;BME280_temperature;BME280_humidity;BME280_pressure;Samples;Min_cycle;Max_cycle;Signal;HPM_P1;HPM_P2
2022/08/02 00:00:14;;;;;;;4.70;2.67;;;17.60;61.30;;;;;;5115994;28;20028;-73
2022/08/02 00:02:45;;;;;;;4.47;2.30;;;17.70;61.80;;;;;;5115935;28;20020;-73
2022/08/02 00:05:11;;;;;;;3.10;2.10;;;17.80;61.60;;;;;;5115045;28;20019;-73
2022/08/02 00:07:37;;;;;;;3.60;2.22;;;17.50;61.90;;;;;;5115839;28;20024;-73
2022/08/02 00:10:04;;;;;;;6.03;2.17;;;17.30;63.10;;;;;;5115796;28;20084;-73
2022/08/02 00:12:30;;;;;;;4.78;2.40;;;17.40;63.50;;;;;;5115763;28;20024;-73
2022/08/02 00:14:56;;;;;;;2.97;2.05;;;17.50;63.40;;;;;;5115646;28;20536;-73
2022/08/02 00:17:22;;;;;;;4.57;2.28;;;17.60;63.20;;;;;;5115648;28;20050;-74
2022/08/02 00:19:47;;;;;;;5.55;2.35;;;17.70;62.90;;;;;;5115581;28;20024;-73
2022/08/02 00:22:13;;;;;;;4.60;2.45;;;17.80;62.70;;;;;;5114679;28;20028;-74
2022/08/02 00:24:39;;;;;;;2.80;2.33;;;17.80;62.40;;;;;;5115678;28;20025;-74
2022/08/02 00:27:07;;;;;;;4.35;2.58;;;17.80;62.10;;;;;;5115442;28;20036;-73
2022/08/02 00:29:33;;;;;;;2.65;2.10;;;17.80;62.40;;;;;;5115368;28;20027;-73
2022/08/02 00:31:59;;;;;;;4.97;2.40;;;17.80;62.60;;;;;;5115336;28;20020;-74
2022/08/02 00:34:24;;;;;;;3.42;2.28;;;17.80;62.70;;;;;;5115325;28;20038;-74
2022/08/02 00:36:50;;;;;;;3.25;2.25;;;17.80;62.60;;;;;;5115156;28;20441;-74
2022/08/02 00:39:16;;;;;;;6.28;3.08;;;17.70;63.10;;;;;;5115194;28;20028;-73
2022/08/02 00:41:47;;;;;;;3.38;2.22;;;17.50;63.70;;;;;;5115177;28;20028;-74
2022/08/02 00:44:14;;;;;;;3.42;2.40;;;17.40;64.10;;;;;;5115123;28;20073;-73
2022/08/02 00:46:39;;;;;;;3.13;2.33;;;17.40;64.00;;;;;;5115120;28;20062;-74
2022/08/02 00:49:05;;;;;;;5.63;2.25;;;17.50;64.50;;;;;;5115017;28;20028;-74
2022/08/02 00:51:31;;;;;;;3.97;2.35;;;17.30;64.70;;;;;;5114967;28;20024;-74
2022/08/02 00:53:56;;;;;;;5.78;2.60;;;17.30;65.20;;;;;;5114936;28;20028;-74
2022/08/02 00:56:22;;;;;;;3.65;2.65;;;17.20;65.90;;;;;;5114606;28;20056;-74
2022/08/02 00:58:47;;;;;;;4.75;2.17;;;17.30;65.30;;;;;;5114834;28;20039;-73
2022/08/02 01:01:14;;;;;;;3.08;2.30;;;17.30;65.20;;;;;;5113843;28;20055;-74
2022/08/02 01:03:40;;;;;;;2.47;2.20;;;17.40;65.00;;;;;;5114738;28;20430;-74
2022/08/02 01:06:06;;;;;;;4.10;2.35;;;17.40;65.10;;;;;;5114699;28;20040;-73
2022/08/02 01:08:31;;;;;;;4.65;2.35;;;17.40;65.30;;;;;;5114528;28;20044;-73
2022/08/02 01:10:57;;;;;;;4.95;2.20;;;17.50;65.40;;;;;;5113595;28;20028;-74
2022/08/02 01:13:24;;;;;;;3.67;2.50;;;17.50;65.00;;;;;;5114588;28;20028;-74
2022/08/02 01:16:03;;;;;;;3.80;2.33;;;17.40;65.10;;;;;;5114441;28;20027;-74
2022/08/02 01:18:40;;;;;;;3.00;2.30;;;17.30;65.60;;;;;;5114517;28;20027;-74
2022/08/02 01:21:33;;;;;;;4.60;2.00;;;17.10;66.20;;;;;;5114490;28;20031;-74
2022/08/02 01:24:43;;;;;;;7.70;2.60;;;17.30;66.30;;;;;;5114578;28;20028;-74
2022/08/02 01:27:40;;;;;;;3.05;2.05;;;17.20;66.10;;;;;;5114397;28;20020;-74
2022/08/02 01:30:06;;;;;;;4.25;2.38;;;17.20;66.50;;;;;;5114307;28;20028;-74
2022/08/02 01:32:45;;;;;;;4.80;2.47;;;17.00;66.50;;;;;;5113374;28;20020;-73
2022/08/02 01:35:15;;;;;;;5.22;2.42;;;16.80;67.00;;;;;;5114163;28;20024;-74
2022/08/02 01:37:48;;;;;;;3.88;2.38;;;16.80;67.50;;;;;;5114184;28;20030;-73
2022/08/02 01:40:22;;;;;;;4.07;2.53;;;16.80;67.90;;;;;;5114143;28;20032;-74
2022/08/02 01:42:54;;;;;;;4.97;2.83;;;16.90;67.90;;;;;;5114077;28;20016;-73
2022/08/02 01:45:21;;;;;;;;;;;16.90;67.60;;;;;;5113526;28;20032;-73
2022/08/02 01:47:49;;;;;;;2.85;2.13;;;16.90;67.20;;;;;;5114006;28;19904;-74
2022/08/02 01:50:17;;;;;;;3.85;2.30;;;16.90;67.50;;;;;;5113943;28;20024;-74
2022/08/02 01:52:48;;;;;;;2.42;1.88;;;16.80;67.30;;;;;;5113885;28;20047;-73
2022/08/02 01:55:21;;;;;;;4.88;2.65;;;16.80;67.30;;;;;;5113637;28;20031;-74
2022/08/02 01:57:54;;;;;;;4.95;2.67;;;16.90;67.20;;;;;;5113850;28;20013;-74
2022/08/02 02:00:23;;;;;;;3.97;2.30;;;17.00;66.90;;;;;;5113779;28;20024;-73
2022/08/02 02:02:51;;;;;;;4.82;2.35;;;17.00;66.90;;;;;;5113754;28;20090;-74
2022/08/02 02:05:19;;;;;;;4.03;2.17;;;16.90;66.70;;;;;;5113698;28;20091;-73
2022/08/02 02:07:49;;;;;;;3.78;2.55;;;16.90;67.20;;;;;;5113672;28;20024;-74
2022/08/02 02:10:20;;;;;;;4.45;2.25;;;16.80;67.50;;;;;;5113641;28;20055;-73
2022/08/02 02:12:50;;;;;;;5.87;2.63;;;16.80;67.70;;;;;;5113816;28;20016;-73
2022/08/02 02:15:16;;;;;;;4.32;2.55;;;16.80;67.50;;;;;;5113504;28;20054;-73
2022/08/02 02:17:45;;;;;;;4.80;2.42;;;16.90;66.90;;;;;;5113604;28;20024;-73
2022/08/02 02:20:20;;;;;;;6.20;3.13;;;17.00;66.50;;;;;;5113040;28;20505;-73
2022/08/02 02:22:47;;;;;;;4.78;2.50;;;17.10;66.10;;;;;;5113574;28;20024;-74
2022/08/02 02:25:16;;;;;;;4.05;2.08;;;17.10;66.00;;;;;;5113528;28;20020;-73
2022/08/02 02:27:50;;;;;;;6.25;2.50;;;16.90;66.70;;;;;;5113654;28;20024;-73
2022/08/02 02:30:16;;;;;;;3.25;2.20;;;16.90;67.70;;;;;;5113528;28;20020;-73
2022/08/02 02:32:44;;;;;;;2.88;2.38;;;16.90;66.80;;;;;;5113591;28;20036;-74
2022/08/02 02:35:11;;;;;;;3.95;2.40;;;16.90;66.60;;;;;;5113327;28;20046;-73
2022/08/02 02:37:38;;;;;;;4.78;2.38;;;16.90;66.60;;;;;;5113397;28;20016;-73
2022/08/02 02:40:05;;;;;;;3.85;2.30;;;16.80;66.70;;;;;;5113347;28;20050;-73
2022/08/02 02:42:33;;;;;;;3.40;2.40;;;16.70;67.20;;;;;;5113288;28;20032;-73
2022/08/02 02:44:59;;;;;;;4.88;2.20;;;16.80;67.10;;;;;;5113302;28;20020;-73
2022/08/02 02:47:28;;;;;;;5.82;2.22;;;16.90;66.80;;;;;;5112384;28;20044;-74
2022/08/02 02:49:56;;;;;;;4.30;2.50;;;16.80;67.00;;;;;;5113300;28;20077;-73
2022/08/02 02:52:23;;;;;;;3.10;2.25;;;16.80;67.70;;;;;;5113256;28;20031;-73
2022/08/02 02:54:50;;;;;;;3.65;2.53;;;16.70;67.90;;;;;;5113166;28;20025;-73
2022/08/02 02:57:17;;;;;;;3.95;3.17;;;16.60;68.30;;;;;;5113034;28;20046;-73
2022/08/02 02:59:43;;;;;;;3.47;2.60;;;16.70;68.40;;;;;;5113209;28;20043;-73
2022/08/02 03:02:10;;;;;;;4.93;2.35;;;16.80;68.00;;;;;;5113188;28;20024;-73
2022/08/02 03:04:39;;;;;;;5.57;2.50;;;16.70;67.80;;;;;;5113136;28;20016;-73
2022/08/02 03:07:05;;;;;;;6.05;2.45;;;16.60;68.20;;;;;;5113114;28;20053;-74
2022/08/02 03:09:31;;;;;;;6.10;2.40;;;16.60;68.70;;;;;;5112067;28;20055;-73
2022/08/02 03:11:57;;;;;;;3.28;2.15;;;16.60;69.20;;;;;;5113052;28;20025;-74
2022/08/02 03:14:23;;;;;;;5.15;2.50;;;16.60;68.90;;;;;;5112121;28;20030;-73
2022/08/02 03:16:51;;;;;;;5.22;2.58;;;16.60;68.80;;;;;;5113076;28;20032;-73
2022/08/02 03:19:17;;;;;;;5.38;2.60;;;16.70;68.90;;;;;;5113003;28;20024;-73
2022/08/02 03:21:44;;;;;;;3.70;2.42;;;16.80;68.50;;;;;;5111994;28;20043;-74
2022/08/02 03:24:10;;;;;;;4.95;2.60;;;16.60;68.00;;;;;;5112931;28;20023;-73
2022/08/02 03:26:36;;;;;;;4.78;2.83;;;16.50;68.30;;;;;;5112933;28;20058;-73
2022/08/02 03:29:02;;;;;;;4.28;2.47;;;16.40;68.90;;;;;;5112844;28;20032;-74
2022/08/02 03:31:28;;;;;;;5.43;2.72;;;16.40;69.60;;;;;;5113973;28;20028;-73
2022/08/02 03:33:59;;;;;;;4.75;2.40;;;16.40;68.60;;;;;;5116513;28;20050;-74
2022/08/02 03:36:27;;;;;;;4.97;2.60;;;16.40;68.60;;;;;;5116471;28;20054;-74
2022/08/02 03:38:54;;;;;;;7.50;2.55;;;16.60;68.70;;;;;;5116438;28;20020;-73
2022/08/02 03:41:21;;;;;;;5.20;2.50;;;16.70;68.40;;;;;;5116361;28;20107;-74
2022/08/02 03:43:49;;;;;;;3.85;2.65;;;16.60;68.60;;;;;;5116328;28;20031;-73
2022/08/02 03:46:18;;;;;;;3.65;2.72;;;16.70;68.70;;;;;;5115354;28;20024;-73
2022/08/02 03:48:45;;;;;;;5.70;2.60;;;16.80;68.20;;;;;;5116225;28;20028;-74
2022/08/02 03:51:11;;;;;;;3.50;2.65;;;16.80;67.90;;;;;;5115277;28;20028;-73
2022/08/02 03:53:38;;;;;;;3.22;2.33;;;16.70;68.00;;;;;;5116158;28;20028;-73
2022/08/02 03:56:04;;;;;;;3.47;2.35;;;16.70;68.60;;;;;;5115766;28;20055;-74
2022/08/02 03:58:30;;;;;;;4.63;2.63;;;16.60;69.40;;;;;;5116047;28;20047;-74
2022/08/02 04:00:57;;;;;;;4.47;2.30;;;16.50;68.70;;;;;;5115982;28;20024;-73
2022/08/02 04:03:23;;;;;;;8.98;2.60;;;16.30;68.70;;;;;;5098079;28;20042;-73
2022/08/02 04:05:49;;;;;;;5.22;2.35;;;16.30;69.20;;;;;;5115917;28;20028;-74
2022/08/02 04:08:15;;;;;;;4.80;2.80;;;16.30;69.60;;;;;;5115852;28;20080;-74
2022/08/02 04:13:31;;;;;;;3.25;2.25;;;16.50;69.70;;;;;;5115814;28;20062;-73
2022/08/02 04:16:03;;;;;;;7.00;2.60;;;16.50;70.00;;;;;;5115627;28;20039;-73
2022/08/02 04:18:36;;;;;;;7.20;2.70;;;16.40;69.30;;;;;;5115736;28;20016;-73
2022/08/02 04:21:03;;;;;;;4.93;2.67;;;16.30;69.70;;;;;;5115807;28;20024;-74
2022/08/02 04:23:30;;;;;;;5.80;3.25;;;16.20;70.00;;;;;;5115576;28;20031;-73
2022/08/02 04:25:56;;;;;;;5.53;3.15;;;16.30;69.90;;;;;;5115507;28;20016;-73
2022/08/02 04:28:23;;;;;;;7.38;3.10;;;16.40;70.20;;;;;;5115399;28;20020;-73
2022/08/02 04:30:50;;;;;;;6.30;3.00;;;16.40;70.20;;;;;;5115546;28;20063;-74
2022/08/02 04:33:16;;;;;;;6.80;3.25;;;16.50;70.20;;;;;;5115508;28;20032;-74
2022/08/02 04:35:43;;;;;;;5.28;3.05;;;16.50;69.90;;;;;;5115408;28;20028;-73
2022/08/02 04:38:11;;;;;;;5.85;3.35;;;16.50;70.00;;;;;;5115283;28;20024;-74
2022/08/02 04:40:37;;;;;;;6.50;2.90;;;16.60;70.20;;;;;;5114294;28;20391;-74
2022/08/02 04:43:05;;;;;;;6.38;3.30;;;16.50;70.50;;;;;;5114754;28;20012;-73
2022/08/02 04:45:31;;;;;;;5.88;2.85;;;16.50;70.90;;;;;;5114244;28;20021;-73
2022/08/02 04:47:57;;;;;;;5.10;3.00;;;16.50;70.90;;;;;;5115175;28;20025;-73
2022/08/02 04:50:22;;;;;;;4.50;2.88;;;16.60;71.00;;;;;;5115007;28;20036;-73
2022/08/02 04:52:48;;;;;;;4.65;3.40;;;16.70;70.90;;;;;;5114005;28;20088;-73
2022/08/02 04:55:13;;;;;;;7.15;3.35;;;16.70;70.60;;;;;;5113717;28;20047;-73
2022/08/02 04:57:54;;;;;;;7.00;3.30;;;16.60;70.40;;;;;;5114957;28;20028;-73
2022/08/02 05:00:20;;;;;;;4.70;2.85;;;16.60;71.60;;;;;;5114860;28;20031;-73
2022/08/02 05:02:46;;;;;;;9.18;3.45;;;16.60;70.90;;;;;;5114751;28;20024;-74
2022/08/02 05:05:12;;;;;;;5.40;3.35;;;16.70;71.00;;;;;;5114750;28;20020;-73
2022/08/02 05:07:37;;;;;;;5.53;3.20;;;16.80;70.80;;;;;;5113706;28;20032;-74
2022/08/02 05:10:04;;;;;;;6.28;3.45;;;16.80;70.40;;;;;;5114601;28;20062;-73
2022/08/02 05:12:29;;;;;;;5.50;3.20;;;16.80;70.30;;;;;;5114777;28;20039;-73
2022/08/02 05:14:55;;;;;;;8.20;3.47;;;16.80;70.60;;;;;;5114462;28;20028;-74
2022/08/02 05:17:21;;;;;;;5.03;3.50;;;16.80;70.80;;;;;;5114513;28;20031;-73
2022/08/02 05:19:46;;;;;;;5.60;3.60;;;16.90;70.70;;;;;;5114514;28;20058;-73
2022/08/02 05:22:12;;;;;;;6.35;4.30;;;16.80;70.70;;;;;;5113469;28;20032;-73
2022/08/02 05:24:38;;;;;;;6.53;4.00;;;16.80;70.70;;;;;;5114388;28;20024;-73
2022/08/02 05:27:03;;;;;;;6.43;3.90;;;16.80;70.70;;;;;;5114336;28;20032;-74
2022/08/02 05:29:29;;;;;;;6.97;3.58;;;16.70;71.00;;;;;;5114246;28;20081;-73
2022/08/02 05:31:54;;;;;;;9.32;4.28;;;16.70;71.10;;;;;;5114380;28;20024;-74
2022/08/02 05:34:20;;;;;;;7.60;4.00;;;16.80;71.30;;;;;;5114243;28;20032;-73
2022/08/02 05:36:46;;;;;;;9.80;4.18;;;16.80;71.10;;;;;;5114014;28;20023;-73
2022/08/02 05:39:11;;;;;;;7.63;4.03;;;16.80;71.30;;;;;;5114106;28;20088;-74
2022/08/02 05:41:37;;;;;;;6.05;4.03;;;16.90;71.60;;;;;;5114136;28;20050;-73
2022/08/02 05:44:03;;;;;;;8.48;4.40;;;16.90;71.60;;;;;;5113059;28;20050;-73
2022/08/02 05:46:29;;;;;;;8.93;4.20;;;17.00;71.50;;;;;;5114173;28;20020;-73
2022/08/02 05:48:55;;;;;;;12.38;5.00;;;17.10;71.30;;;;;;5113260;28;20020;-73
2022/08/02 05:51:37;;;;;;;6.90;4.00;;;17.10;71.30;;;;;;5112961;28;20028;-73
2022/08/02 05:54:19;;;;;;;10.07;4.35;;;17.10;71.50;;;;;;5113158;28;20032;-73
2022/08/02 05:57:02;;;;;;;8.35;4.28;;;17.20;71.40;;;;;;5113695;28;20070;-74
2022/08/02 05:59:55;;;;;;;8.23;4.55;;;17.20;71.60;;;;;;5112937;28;20069;-73
2022/08/02 06:02:37;;;;;;;9.27;4.93;;;17.20;71.90;;;;;;5113809;28;20016;-73
2022/08/02 06:05:10;;;;;;;8.02;4.85;;;17.30;72.00;;;;;;5113771;28;20020;-73
2022/08/02 06:07:38;;;;;;;7.82;5.55;;;17.40;72.40;;;;;;5113817;28;20024;-74
2022/08/02 06:10:05;;;;;;;10.98;5.40;;;17.50;72.40;;;;;;5113651;28;20028;-73
2022/08/02 06:12:34;;;;;;;10.50;5.20;;;17.50;72.50;;;;;;5113620;28;20043;-74
2022/08/02 06:15:03;;;;;;;11.55;5.70;;;17.60;72.10;;;;;;5112519;28;20048;-74
2022/08/02 06:17:29;;;;;;;12.73;5.80;;;17.70;72.70;;;;;;5112600;28;20499;-73
2022/08/02 06:19:59;;;;;;;10.25;5.82;;;17.70;72.70;;;;;;5113518;28;20029;-73
2022/08/02 06:22:27;;;;;;;10.30;5.53;;;17.80;73.20;;;;;;5113606;28;20035;-73
2022/08/02 06:24:53;;;;;;;9.82;6.10;;;17.80;73.00;;;;;;5113449;28;20028;-73
2022/08/02 06:27:20;;;;;;;7.78;6.00;;;17.90;73.70;;;;;;5113313;28;20042;-72
2022/08/02 06:29:48;;;;;;;12.63;6.30;;;17.90;73.60;;;;;;5113366;28;20020;-73
2022/08/02 06:32:18;;;;;;;8.20;6.10;;;18.00;74.10;;;;;;5113431;28;20024;-72
2022/08/02 06:34:44;;;;;;;9.65;6.38;;;18.10;74.40;;;;;;5113533;28;20029;-72
2022/08/02 06:37:31;;;;;;;11.40;6.88;;;18.10;74.90;;;;;;5113280;28;20031;-73
2022/08/02 06:40:29;;;;;;;8.90;6.70;;;18.20;74.80;;;;;;5113493;28;20051;-72
2022/08/02 06:43:19;;;;;;;11.80;6.65;;;18.30;74.30;;;;;;5111162;28;20035;-73
2022/08/02 06:45:45;;;;;;;11.85;6.80;;;18.40;74.30;;;;;;5113484;28;20039;-73
2022/08/02 06:48:10;;;;;;;11.25;7.32;;;18.50;74.80;;;;;;5113311;28;20024;-73
2022/08/02 06:50:40;;;;;;;12.25;7.47;;;18.60;74.70;;;;;;5113256;28;20084;-73
2022/08/02 06:53:07;;;;;;;10.50;7.38;;;18.70;74.50;;;;;;5113257;28;20020;-73
2022/08/02 06:55:33;;;;;;;12.98;7.65;;;18.90;75.10;;;;;;5112976;28;20040;-73
2022/08/02 06:57:59;;;;;;;10.18;7.30;;;18.90;74.40;;;;;;5113410;28;20051;-73
2022/08/02 07:00:26;;;;;;;12.38;7.07;;;18.90;74.80;;;;;;5112110;28;20031;-73
2022/08/02 07:02:52;;;;;;;11.48;7.53;;;19.00;75.00;;;;;;5113160;28;20016;-73
2022/08/02 07:05:18;;;;;;;11.25;7.03;;;19.10;74.90;;;;;;5113189;28;20056;-73
2022/08/02 07:07:44;;;;;;;11.43;8.15;;;19.20;75.10;;;;;;5117021;28;20145;-73
2022/08/02 07:10:12;;;;;;;13.35;7.95;;;19.40;75.90;;;;;;5116868;28;20084;-74
2022/08/02 07:12:37;;;;;;;12.15;7.93;;;19.60;75.40;;;;;;5116919;28;20028;-73
2022/08/02 07:15:06;;;;;;;13.07;8.38;;;19.70;74.60;;;;;;5115848;28;20080;-73
2022/08/02 07:17:33;;;;;;;13.32;8.35;;;19.80;74.40;;;;;;5116836;28;20024;-73
2022/08/02 07:19:59;;;;;;;10.55;7.95;;;19.90;74.80;;;;;;5116783;28;20379;-74
2022/08/02 07:22:25;;;;;;;13.57;8.32;;;20.00;74.60;;;;;;5115823;28;20032;-74
2022/08/02 07:24:52;;;;;;;13.93;8.50;;;20.00;74.20;;;;;;5116733;28;20031;-74
2022/08/02 07:27:18;;;;;;;13.30;8.75;;;20.10;74.40;;;;;;5116677;28;20421;-74
2022/08/02 07:29:44;;;;;;;14.55;8.63;;;20.20;75.10;;;;;;5116539;28;20039;-73
2022/08/02 07:32:10;;;;;;;12.55;8.82;;;20.30;73.90;;;;;;5116566;28;20028;-73
2022/08/02 07:34:35;;;;;;;13.68;8.65;;;20.40;74.00;;;;;;5115504;28;20032;-74
2022/08/02 07:37:01;;;;;;;11.90;8.50;;;20.50;73.90;;;;;;5116407;28;20036;-74
2022/08/02 07:39:27;;;;;;;11.77;8.30;;;20.60;74.80;;;;;;5116433;28;20083;-73
2022/08/02 07:41:53;;;;;;;15.13;8.45;;;20.60;73.70;;;;;;5116398;28;20020;-74
2022/08/02 07:44:19;;;;;;;13.45;8.10;;;20.70;73.00;;;;;;5116346;28;20085;-74
2022/08/02 07:46:45;;;;;;;12.82;7.82;;;20.70;73.40;;;;;;5116324;28;20083;-74
2022/08/02 07:49:17;;;;;;;13.10;8.98;;;20.80;72.80;;;;;;5115240;28;20021;-74
2022/08/02 07:51:43;;;;;;;11.40;8.80;;;20.80;73.40;;;;;;5116285;28;20020;-74
2022/08/02 07:54:09;;;;;;;13.32;9.63;;;20.90;72.90;;;;;;5116130;28;20535;-74
2022/08/02 07:56:36;;;;;;;13.13;9.45;;;21.10;73.40;;;;;;5115829;28;20048;-73
2022/08/02 07:59:02;;;;;;;14.13;8.57;;;21.20;72.30;;;;;;5115101;28;20059;-74
2022/08/02 08:01:28;;;;;;;11.48;7.88;;;21.20;71.40;;;;;;5115931;28;20044;-74
2022/08/02 08:03:53;;;;;;;13.68;7.82;;;21.20;71.10;;;;;;5115927;28;20032;-74
2022/08/02 08:06:19;;;;;;;9.88;6.57;;;21.20;71.50;;;;;;5116044;28;20040;-74
2022/08/02 08:08:45;;;;;;;11.23;7.25;;;21.30;71.80;;;;;;5115978;28;20032;-74
2022/08/02 08:11:10;;;;;;;12.32;8.00;;;21.50;70.40;;;;;;5115824;28;20039;-74
2022/08/02 08:13:36;;;;;;;12.45;7.32;;;21.70;70.40;;;;;;5115777;28;20043;-73
2022/08/02 08:16:02;;;;;;;12.18;7.05;;;21.80;71.30;;;;;;5114747;28;20036;-74
2022/08/02 08:18:28;;;;;;;10.43;6.65;;;21.90;70.60;;;;;;5114860;28;20020;-74
2022/08/02 08:20:54;;;;;;;7.93;5.53;;;21.90;68.90;;;;;;5114726;28;20028;-74
2022/08/02 08:23:19;;;;;;;10.40;6.32;;;22.00;68.80;;;;;;5115584;28;20024;-74
2022/08/02 08:25:45;;;;;;;7.78;5.13;;;22.10;66.90;;;;;;5114516;28;20032;-74
2022/08/02 08:28:10;;;;;;;9.18;5.30;;;22.10;66.10;;;;;;5115432;28;20028;-74
2022/08/02 08:30:38;;;;;;;9.55;5.68;;;22.10;66.30;;;;;;5115409;28;20032;-74
2022/08/02 08:33:04;;;;;;;7.43;4.95;;;22.10;67.00;;;;;;5115388;28;20024;-73
2022/08/02 08:35:29;;;;;;;8.63;4.88;;;22.30;65.90;;;;;;5115246;28;20051;-74
2022/08/02 08:37:55;;;;;;;6.05;4.15;;;22.40;65.30;;;;;;5115302;28;20055;-74
2022/08/02 08:40:23;;;;;;;8.95;5.32;;;22.50;65.80;;;;;;5115233;28;20024;-74
2022/08/02 08:42:48;;;;;;;6.70;4.90;;;22.60;66.20;;;;;;5115230;28;20442;-73
2022/08/02 08:45:15;;;;;;;8.00;5.45;;;22.60;65.50;;;;;;5115124;28;20020;-73
2022/08/02 08:47:41;;;;;;;5.80;4.63;;;22.60;64.70;;;;;;5114381;28;20043;-73
2022/08/02 08:50:16;;;;;;;9.85;4.72;;;22.60;64.60;;;;;;5114017;28;20031;-73
2022/08/02 08:53:05;;;;;;;8.65;4.60;;;22.70;64.50;;;;;;5115159;28;20016;-73
2022/08/02 08:55:33;;;;;;;6.07;4.07;;;22.80;65.00;;;;;;5114865;28;20055;-73
2022/08/02 08:58:00;;;;;;;6.25;4.55;;;22.80;64.50;;;;;;5114926;28;20035;-74
2022/08/02 09:00:26;;;;;;;7.53;4.78;;;22.90;64.90;;;;;;5113984;28;20050;-74
2022/08/02 09:02:52;;;;;;;7.80;4.65;;;23.00;63.60;;;;;;5114819;28;20019;-74
2022/08/02 09:05:18;;;;;;;5.60;3.50;;;23.20;63.50;;;;;;5114762;28;20051;-74
2022/08/02 09:07:51;;;;;;;8.02;3.78;;;23.30;63.30;;;;;;5113773;28;20024;-74
2022/08/02 09:10:36;;;;;;;5.30;3.55;;;23.40;62.80;;;;;;5114695;28;20025;-73
2022/08/02 09:13:10;;;;;;;6.18;3.88;;;23.60;62.60;;;;;;5114626;28;20016;-73
2022/08/02 09:15:40;;;;;;;6.95;3.22;;;23.50;63.40;;;;;;5114498;28;20060;-73
2022/08/02 09:18:06;;;;;;;5.05;3.17;;;23.50;64.00;;;;;;5114565;28;20028;-74
2022/08/02 09:20:33;;;;;;;3.53;3.00;;;23.40;63.00;;;;;;5114385;28;20046;-73
2022/08/02 09:23:10;;;;;;;4.85;2.70;;;23.40;63.80;;;;;;5114375;28;20032;-73
2022/08/02 09:25:36;;;;;;;4.10;2.53;;;23.40;62.20;;;;;;5114277;28;20039;-74
2022/08/02 09:28:03;;;;;;;4.68;3.05;;;23.50;62.80;;;;;;5114247;28;20058;-73
2022/08/02 09:30:30;;;;;;;4.05;2.80;;;23.50;62.80;;;;;;5114319;28;20016;-74
2022/08/02 09:32:56;;;;;;;7.05;2.80;;;23.60;63.10;;;;;;5114212;28;20417;-73
2022/08/02 09:35:58;;;;;;;4.85;2.50;;;23.70;63.60;;;;;;5114274;28;20027;-73
2022/08/02 09:38:23;;;;;;;6.27;2.93;;;23.80;63.10;;;;;;5106562;28;20040;-73
2022/08/02 09:40:49;;;;;;;5.13;2.70;;;23.80;63.60;;;;;;5114092;28;20270;-73
2022/08/02 09:43:16;;;;;;;6.07;3.15;;;23.90;62.40;;;;;;5114059;28;20028;-73
2022/08/02 09:45:41;;;;;;;5.18;2.92;;;24.10;61.90;;;;;;5114044;28;20383;-74
2022/08/02 09:48:08;;;;;;;5.97;3.00;;;24.20;61.80;;;;;;5114017;28;20029;-74
2022/08/02 09:50:36;;;;;;;4.50;2.60;;;24.30;60.90;;;;;;5112959;28;20027;-74
2022/08/02 09:53:02;;;;;;;3.67;2.40;;;24.30;60.20;;;;;;5113851;28;20024;-74
2022/08/02 09:55:29;;;;;;;4.75;2.38;;;24.30;60.60;;;;;;5113530;28;20020;-74
2022/08/02 09:57:56;;;;;;;3.97;2.30;;;24.50;59.60;;;;;;5113929;28;20045;-74
2022/08/02 10:00:22;;;;;;;2.67;2.15;;;24.50;57.40;;;;;;5113817;28;20028;-74
2022/08/02 10:03:10;;;;;;;2.58;1.90;;;24.50;58.00;;;;;;5113931;28;20020;-74
2022/08/02 10:06:05;;;;;;;3.80;2.05;;;24.50;54.00;;;;;;5114050;28;20027;-74
2022/08/02 10:08:31;;;;;;;5.63;2.10;;;24.50;55.80;;;;;;5108985;28;20064;-74
2022/08/02 10:11:01;;;;;;;3.47;1.92;;;24.50;55.60;;;;;;5113704;28;20016;-74
2022/08/02 10:13:36;;;;;;;3.83;2.10;;;24.60;56.50;;;;;;5113660;28;20039;-74
2022/08/02 10:16:03;;;;;;;3.38;2.35;;;24.60;56.80;;;;;;5095741;28;20031;-74
2022/08/02 10:18:29;;;;;;;3.72;2.30;;;24.70;56.10;;;;;;5113629;28;20024;-74
2022/08/02 10:20:56;;;;;;;5.80;2.22;;;24.90;57.60;;;;;;5113578;28;20031;-74
2022/08/02 10:23:25;;;;;;;3.15;2.00;;;25.00;56.30;;;;;;5113692;28;20040;-74
2022/08/02 10:25:53;;;;;;;4.65;2.28;;;25.00;55.70;;;;;;5113529;28;20035;-74
2022/08/02 10:28:25;;;;;;;3.00;1.90;;;25.00;53.80;;;;;;5113421;28;20024;-74
2022/08/02 10:30:53;;;;;;;2.85;1.95;;;25.00;51.80;;;;;;5113554;28;20024;-73
2022/08/02 10:33:20;;;;;;;3.92;1.88;;;25.00;51.40;;;;;;5113442;28;20024;-74
2022/08/02 10:35:50;;;;;;;3.70;1.73;;;25.00;52.60;;;;;;5112403;28;20032;-74
2022/08/02 10:38:17;;;;;;;3.42;1.40;;;25.10;51.60;;;;;;5113412;28;20027;-73
2022/08/02 10:40:49;;;;;;;2.78;1.40;;;25.20;52.00;;;;;;5115044;28;20020;-75
2022/08/02 10:43:35;;;;;;;2.83;1.47;;;25.30;49.20;;;;;;5117574;28;20024;-74
2022/08/02 10:46:20;;;;;;;3.88;1.45;;;25.40;48.50;;;;;;5113455;28;20270;-74
2022/08/02 10:49:09;;;;;;;1.90;1.35;;;25.40;48.90;;;;;;5117424;28;20038;-74
2022/08/02 10:51:54;;;;;;;1.75;1.42;;;25.50;48.30;;;;;;5117518;28;20030;-75
2022/08/02 10:54:22;;;;;;;3.55;1.65;;;25.60;45.20;;;;;;5117340;28;20036;-73
2022/08/02 10:56:50;;;;;;;5.28;1.60;;;25.60;47.90;;;;;;5117069;28;20510;-74
2022/08/02 10:59:23;;;;;;;1.90;1.40;;;25.60;46.90;;;;;;5117377;28;20039;-74
2022/08/02 11:01:49;;;;;;;2.08;1.38;;;25.70;49.30;;;;;;5117355;28;20375;-74
2022/08/02 11:04:15;;;;;;;3.33;1.20;;;25.90;48.90;;;;;;5117137;28;20058;-74
2022/08/02 11:07:10;;;;;;;1.73;1.02;;;26.00;46.30;;;;;;5117107;28;20032;-74
2022/08/02 11:09:36;;;;;;;1.30;1.08;;;26.00;42.40;;;;;;5117161;28;20031;-74
2022/08/02 11:12:10;;;;;;;2.58;1.20;;;25.90;41.50;;;;;;5116992;28;20020;-74
2022/08/02 11:14:38;;;;;;;1.73;1.13;;;25.90;43.60;;;;;;5116998;28;20028;-74
2022/08/02 11:17:09;;;;;;;1.80;1.17;;;26.00;43.60;;;;;;5116818;28;20020;-74
2022/08/02 11:20:10;;;;;;;2.95;1.10;;;26.10;43.60;;;;;;5116903;28;20020;-74
2022/08/02 11:22:37;;;;;;;3.25;1.08;;;26.30;41.90;;;;;;5116709;28;20574;-74
2022/08/02 11:25:21;;;;;;;1.83;1.27;;;26.40;43.10;;;;;;5116803;28;20020;-74
2022/08/02 11:27:59;;;;;;;1.90;1.25;;;26.50;40.10;;;;;;5116686;28;20110;-74
2022/08/02 11:30:25;;;;;;;1.85;1.10;;;26.50;40.90;;;;;;5116784;28;20053;-73
2022/08/02 11:32:58;;;;;;;1.63;1.15;;;26.40;42.10;;;;;;5116619;28;20020;-74
2022/08/02 11:35:35;;;;;;;1.85;1.08;;;26.50;40.90;;;;;;5116521;28;20032;-74
2022/08/02 11:38:18;;;;;;;1.27;0.93;;;26.50;39.10;;;;;;5116591;28;20024;-74
2022/08/02 11:40:45;;;;;;;2.88;1.00;;;26.50;40.10;;;;;;5116486;28;20084;-73
2022/08/02 11:43:19;;;;;;;2.45;1.00;;;26.50;40.50;;;;;;5116425;28;20020;-74
2022/08/02 11:45:45;;;;;;;2.25;1.02;;;26.50;40.60;;;;;;5116351;28;20024;-74
2022/08/02 11:48:11;;;;;;;2.15;1.00;;;26.60;40.20;;;;;;5116249;28;20032;-74
2022/08/02 11:50:37;;;;;;;2.08;0.90;;;26.70;40.40;;;;;;5116277;28;20046;-74
2022/08/02 11:53:12;;;;;;;1.75;1.00;;;26.70;39.70;;;;;;5114981;28;20427;-74
2022/08/02 11:55:38;;;;;;;3.70;1.40;;;26.60;38.20;;;;;;5116016;28;20038;-74
2022/08/02 11:58:06;;;;;;;2.13;0.80;;;26.60;40.20;;;;;;5116073;28;20067;-74
2022/08/02 12:00:32;;;;;;;1.85;1.52;;;26.70;40.20;;;;;;5116253;28;20061;-73
2022/08/02 12:02:58;;;;;;;1.33;0.80;;;26.70;39.40;;;;;;5116057;28;20016;-74
2022/08/02 12:05:25;;;;;;;2.35;1.17;;;26.70;39.20;;;;;;5116019;28;20451;-74
2022/08/02 12:07:51;;;;;;;2.58;1.40;;;26.70;38.60;;;;;;5115936;28;20027;-74
2022/08/02 12:10:20;;;;;;;2.53;1.20;;;26.70;39.10;;;;;;5115900;28;20088;-74
2022/08/02 12:12:59;;;;;;;2.72;0.98;;;26.60;39.70;;;;;;5115769;28;20028;-74
2022/08/02 12:15:44;;;;;;;6.22;1.08;;;26.70;40.80;;;;;;5115792;28;20098;-74
2022/08/02 12:21:25;;;;;;;3.70;1.38;;;26.70;40.50;;;;;;5115794;28;20035;-74
2022/08/02 12:23:51;;;;;;;4.07;1.20;;;26.80;39.80;;;;;;5115832;28;20020;-74
2022/08/02 12:26:17;;;;;;;1.73;0.98;;;26.80;40.10;;;;;;5115558;28;20054;-74
2022/08/02 12:28:42;;;;;;;4.07;1.20;;;26.80;39.70;;;;;;5114510;28;20095;-74
2022/08/02 12:31:10;;;;;;;2.67;1.00;;;26.90;38.50;;;;;;5115596;28;20050;-74
2022/08/02 12:33:52;;;;;;;2.00;1.20;;;26.90;40.20;;;;;;5115456;28;20031;-74
2022/08/02 12:36:28;;;;;;;1.48;1.00;;;26.90;37.50;;;;;;5114278;28;20032;-74
2022/08/02 12:38:57;;;;;;;1.20;1.00;;;26.90;39.70;;;;;;5115205;28;20016;-74
2022/08/02 12:41:23;;;;;;;1.58;0.93;;;26.90;41.50;;;;;;5115285;28;20016;-73
2022/08/02 12:43:51;;;;;;;2.33;1.00;;;27.10;39.70;;;;;;5115124;28;20072;-74
2022/08/02 12:46:19;;;;;;;1.02;0.90;;;27.10;40.10;;;;;;5115198;28;20027;-74
2022/08/02 12:48:45;;;;;;;3.10;1.20;;;27.10;39.00;;;;;;5115145;28;20035;-73
2022/08/02 12:51:40;;;;;;;2.58;1.30;;;27.20;37.70;;;;;;5115091;28;20063;-74
2022/08/02 12:54:15;;;;;;;1.42;1.10;;;27.50;39.10;;;;;;5110347;28;20083;-74
2022/08/02 12:56:41;;;;;;;1.63;1.02;;;27.40;38.90;;;;;;5114738;28;20040;-74
2022/08/02 12:59:06;;;;;;;1.63;1.05;;;27.60;38.70;;;;;;5114943;28;20028;-73
2022/08/02 13:01:34;;;;;;;1.67;1.10;;;27.60;37.80;;;;;;5114890;28;20049;-73